Sioux Falls, SD

6:51 AM CST on February 24, 2017 (GMT -0600)
Sioux Empire Development Park II | | Change Station

Elev 1440 ft 43.60 °N, 96.72 °W | Updated 45 seconds ago

Light Snow
Light Snow Mist
20.5 °F
Feels Like 5 °F
N
19.7
Wind Variable Wind from NNE

Today
High -- | Low -- °F
--% Chance of Precip.
Yesterday
High -- | Low -- °F
Precip. -- in
Pressure 29.87 in
Visibility 5.0 miles
Clouds Overcast 1600 ft
Windchill 5 °F
Dew Point 17 °F
Humidity 87%
Rainfall 0.00 in
Snow Depth Not available.
7:11 AM 6:09 PM
Waning Crescent, 5% visible
SPECI KFSD 241236Z COR 01022G32KT 5SM -SN BR OVC016 M06/M08 A2987 RMK AO2 PK WND 36032/1228 SNB34 DRSN P0000 T10561078 $
Pressure 29.87 in
Visibility 5.0 miles
Clouds Overcast 1600 ft
Windchill 5 °F
Dew Point 17 °F
Humidity 87%
Rainfall 0.00 in
Snow Depth Not available.
7:11 AM 6:09 PM
Waning Crescent, 5% visible
SPECI KFSD 241236Z COR 01022G32KT 5SM -SN BR OVC016 M06/M08 A2987 RMK AO2 PK WND 36032/1228 SNB34 DRSN P0000 T10561078 $

Get Your Daily Forecast Email!

Thanks for signing up!

Be on the lookout for a verification email in your inbox.

You'll start receiving the daily forecast at 8 AM.

×

10-Day Weather Forecast

Almanac

Astronomy

Feb. 24, 2017 Rise Set
Actual Time
Civil Twilight
Nautical Twilight
Astronomical Twilight
Moon
Length of Visible Light
Length of Day
Tomorrow will be .
, % of the Moon is Illuminated

Today's Extremes

State Highs State Lows

Community

WunderPhotos

Upload Photos

1,962,540 photos uploaded!

WunderBlog® & News

Nearby

Air Quality

  Air Quality AQ Index Pollutant
Not available.

Snow Depth

Station Depth Elevation

Earthquake Activity

City Distance Mag. Time & Date
Minimum magnitude displayed is 2.5.

Coastal Water Temperatures

Place Temperature

Stations

Nearby Weather Stations

Station Location Temp. Windchill Dew Point Humidity Wind Precip. Elev Updated Type
                   

Watches & Warnings

There are currently no watches in effect.